Terminal Aerodrome Forecast
Issued by NWS

Home | Current Version | Previous Version | Text Only | Print | Product List | Glossary On
Versions: 1 2 3 4 5 6 7 8 9 10 11 12 13 14 15 16 17 18 19 20
288
FTUS43 KAPX 190540
TAFPLN
TAF
KPLN 190540Z 1906/2006 16008KT P6SM BKN100 WS020/19045KT
     FM191000 19010KT P6SM OVC070 WS020/21040KT
     FM191200 19004KT P6SM OVC150
     FM191500 00000KT P6SM OVC060
     FM191800 VRB03KT P6SM BKN015 BKN080
     FM192000 VRB03KT 4SM -DZ OVC010
     FM192300 06007KT 3SM -RASN OVC010
     FM200200 06010KT 2SM -FZRA BR OVC010=

USA.gov is the U.S. government's official web portal to all federal, state and local government web resources and services.